createdAt,value
2023-01-25T00:00:34.924Z,2.30
2023-01-25T00:03:01.680Z,2.40
2023-01-25T00:05:28.547Z,2.40
2023-01-25T00:07:55.694Z,2.30
2023-01-25T00:10:22.517Z,2.30
2023-01-25T00:12:49.207Z,2.30
2023-01-25T00:15:18.640Z,2.20
2023-01-25T00:17:45.423Z,2.20
2023-01-25T00:20:12.320Z,2.10
2023-01-25T00:22:39.070Z,2.10
2023-01-25T00:25:06.440Z,2.10
2023-01-25T00:27:33.479Z,2.10
2023-01-25T00:30:00.252Z,2.10
2023-01-25T00:33:07.847Z,2.10
2023-01-25T00:35:35.024Z,2.10
2023-01-25T00:38:06.560Z,2.10
2023-01-25T00:40:33.419Z,2.10
2023-01-25T00:43:00.964Z,2.10
2023-01-25T00:45:27.879Z,2.10
2023-01-25T00:47:56.340Z,2.10
2023-01-25T00:50:23.252Z,2.10
2023-01-25T00:52:49.956Z,2.10
2023-01-25T00:55:16.836Z,2.10
2023-01-25T00:57:43.604Z,2.10
2023-01-25T01:00:11.129Z,2.10
2023-01-25T01:02:38.078Z,2.10
2023-01-25T01:05:05.338Z,2.10
2023-01-25T01:07:32.456Z,2.10
2023-01-25T01:10:00.346Z,2.10
2023-01-25T01:12:27.144Z,2.10
2023-01-25T01:14:53.987Z,2.10
2023-01-25T01:17:20.831Z,2.10
2023-01-25T01:19:47.939Z,2.10
2023-01-25T01:22:14.818Z,2.10
2023-01-25T01:24:44.551Z,2.10
2023-01-25T01:27:11.268Z,2.10
2023-01-25T01:29:38.111Z,2.10
2023-01-25T01:32:05.322Z,2.10
2023-01-25T01:34:32.249Z,2.10
2023-01-25T01:36:58.963Z,2.10
2023-01-25T01:39:26.075Z,2.10
2023-01-25T01:41:52.928Z,2.10
2023-01-25T01:44:28.009Z,2.10
2023-01-25T01:46:58.613Z,2.10
2023-01-25T01:49:31.665Z,2.10
2023-01-25T01:52:05.824Z,2.10
2023-01-25T01:54:40.590Z,2.20
2023-01-25T01:57:12.515Z,2.10
2023-01-25T01:59:49.990Z,2.20
2023-01-25T02:02:17.017Z,2.20
2023-01-25T02:04:48.172Z,2.20
2023-01-25T02:07:23.096Z,2.20
2023-01-25T02:09:51.790Z,2.20
2023-01-25T02:12:20.867Z,2.10
2023-01-25T02:14:50.159Z,2.10
2023-01-25T02:17:42.413Z,2.10
2023-01-25T02:20:19.443Z,2.10
2023-01-25T02:23:16.966Z,2.10
2023-01-25T02:25:44.075Z,2.10
2023-01-25T02:28:25.780Z,2.10
2023-01-25T02:30:52.633Z,2.10
2023-01-25T02:33:19.400Z,2.00
2023-01-25T02:35:55.038Z,2.00
2023-01-25T02:38:25.049Z,2.00
2023-01-25T02:41:05.283Z,1.90
2023-01-25T02:43:34.200Z,1.90
2023-01-25T02:46:17.685Z,1.90
2023-01-25T02:48:44.488Z,1.90
2023-01-25T02:51:11.660Z,1.90
2023-01-25T02:53:38.521Z,1.90
2023-01-25T02:56:05.720Z,1.90
2023-01-25T02:58:32.553Z,1.90
2023-01-25T03:01:02.267Z,1.90
2023-01-25T03:03:29.028Z,1.90
2023-01-25T03:05:55.915Z,1.90
2023-01-25T03:08:22.719Z,1.90
2023-01-25T03:10:49.522Z,1.90
2023-01-25T03:13:16.361Z,2.00
2023-01-25T03:15:43.177Z,1.90
2023-01-25T03:18:09.903Z,1.90
2023-01-25T03:20:39.926Z,1.90
2023-01-25T03:23:06.678Z,1.90
2023-01-25T03:25:33.391Z,1.90
2023-01-25T03:28:03.166Z,1.90
2023-01-25T03:30:29.879Z,1.90
2023-01-25T03:32:56.633Z,1.90
2023-01-25T03:35:23.487Z,1.90
2023-01-25T03:37:50.306Z,1.90
2023-01-25T03:40:17.332Z,1.90
2023-01-25T03:42:46.803Z,2.00
2023-01-25T03:45:14.451Z,2.00
2023-01-25T03:47:44.495Z,1.90
2023-01-25T03:50:11.810Z,1.90
2023-01-25T03:52:42.371Z,1.80
2023-01-25T03:55:09.995Z,1.80
2023-01-25T03:57:36.980Z,1.80
2023-01-25T04:00:04.797Z,1.80
2023-01-25T04:02:31.584Z,1.80
2023-01-25T04:04:58.432Z,1.80
2023-01-25T04:07:25.250Z,1.80
2023-01-25T04:09:52.176Z,1.80
2023-01-25T04:12:18.947Z,1.80
2023-01-25T04:14:45.683Z,1.80
2023-01-25T04:17:13.088Z,1.80
2023-01-25T04:19:40.140Z,1.80
2023-01-25T04:22:07.112Z,1.70
2023-01-25T04:24:33.820Z,1.70
2023-01-25T04:27:00.499Z,1.70
2023-01-25T04:29:40.018Z,1.70
2023-01-25T04:32:07.776Z,1.70
2023-01-25T04:34:34.589Z,1.70
2023-01-25T04:37:01.275Z,1.70
2023-01-25T04:39:27.974Z,1.70
2023-01-25T04:41:54.707Z,1.70
2023-01-25T04:44:21.452Z,1.70
2023-01-25T04:46:48.810Z,1.70
2023-01-25T04:49:15.669Z,1.70
2023-01-25T04:51:42.511Z,1.70
2023-01-25T04:54:09.354Z,1.70
2023-01-25T04:56:39.189Z,1.70
2023-01-25T04:59:06.343Z,1.70
2023-01-25T05:01:36.232Z,1.60
2023-01-25T05:04:03.162Z,1.60
2023-01-25T05:06:30.132Z,1.60
2023-01-25T05:08:56.884Z,1.50
2023-01-25T05:11:23.689Z,1.50
2023-01-25T05:13:54.882Z,1.50
2023-01-25T05:16:21.729Z,1.50
2023-01-25T05:18:49.456Z,1.40
2023-01-25T05:21:45.859Z,1.40
2023-01-25T05:24:12.689Z,1.40
2023-01-25T05:27:00.545Z,1.40
2023-01-25T05:29:28.661Z,1.40
2023-01-25T05:31:55.670Z,1.40
2023-01-25T05:34:22.800Z,1.40
2023-01-25T05:36:49.779Z,1.40
2023-01-25T05:39:16.467Z,1.40
2023-01-25T05:41:43.564Z,1.40
2023-01-25T05:44:10.427Z,1.40
2023-01-25T05:46:37.319Z,1.40
2023-01-25T05:49:04.442Z,1.40
2023-01-25T05:51:31.459Z,1.40
2023-01-25T05:53:58.594Z,1.40
2023-01-25T05:56:25.419Z,1.40
2023-01-25T05:58:57.033Z,1.40
2023-01-25T06:01:24.545Z,1.40
2023-01-25T06:03:51.579Z,1.40
2023-01-25T06:06:18.769Z,1.40
2023-01-25T06:08:46.663Z,1.40
2023-01-25T06:11:15.560Z,1.40
2023-01-25T06:13:42.763Z,1.40
2023-01-25T06:16:10.101Z,1.40
2023-01-25T06:18:37.243Z,1.40
2023-01-25T06:21:11.121Z,1.40
2023-01-25T06:23:38.326Z,1.40
2023-01-25T06:26:08.953Z,1.40
2023-01-25T06:28:37.415Z,1.40
2023-01-25T06:31:13.113Z,1.30
2023-01-25T06:33:47.203Z,1.30
2023-01-25T06:36:16.250Z,1.30
2023-01-25T06:38:43.218Z,1.30
2023-01-25T06:41:12.096Z,1.30
2023-01-25T06:43:39.363Z,1.30
2023-01-25T06:46:08.940Z,1.30
2023-01-25T06:48:36.138Z,1.30
2023-01-25T06:51:06.231Z,1.30
2023-01-25T06:53:35.150Z,1.30
2023-01-25T06:56:10.058Z,1.30
2023-01-25T06:58:37.960Z,1.30
2023-01-25T07:01:12.896Z,1.30
2023-01-25T07:03:43.200Z,1.30
2023-01-25T07:06:13.030Z,1.30
2023-01-25T07:08:39.858Z,1.30
2023-01-25T07:11:09.600Z,1.30
2023-01-25T07:13:37.071Z,1.30
2023-01-25T07:16:06.892Z,1.30
2023-01-25T07:18:37.591Z,1.30
2023-01-25T07:21:13.193Z,1.40
2023-01-25T07:23:41.572Z,1.30
2023-01-25T07:26:28.835Z,1.40
2023-01-25T07:28:57.399Z,1.40
2023-01-25T07:31:24.965Z,1.40
2023-01-25T07:33:56.947Z,1.40
2023-01-25T07:36:26.698Z,1.40
2023-01-25T07:38:55.058Z,1.40
2023-01-25T07:41:22.655Z,1.40
2023-01-25T07:43:49.517Z,1.40
2023-01-25T07:46:17.251Z,1.40
2023-01-25T07:48:51.992Z,1.40
2023-01-25T07:51:30.186Z,1.40
2023-01-25T07:54:02.231Z,1.40
2023-01-25T07:56:40.792Z,1.40
2023-01-25T07:59:09.868Z,1.40
2023-01-25T08:01:37.232Z,1.40
2023-01-25T08:04:05.288Z,1.30
2023-01-25T08:06:39.507Z,1.30
2023-01-25T08:09:09.717Z,1.30
2023-01-25T08:11:37.299Z,1.30
2023-01-25T08:14:04.236Z,1.30
2023-01-25T08:16:32.311Z,1.30
2023-01-25T08:19:01.226Z,1.30
2023-01-25T08:21:32.261Z,1.30
2023-01-25T08:24:00.662Z,1.20
2023-01-25T08:26:28.154Z,1.20
2023-01-25T08:28:55.294Z,1.20
2023-01-25T08:31:24.670Z,1.30
2023-01-25T08:33:52.119Z,1.30
2023-01-25T08:36:20.157Z,1.30
2023-01-25T08:38:48.058Z,1.30
2023-01-25T08:41:20.370Z,1.40
2023-01-25T08:43:47.583Z,1.40
2023-01-25T08:46:19.423Z,1.40
2023-01-25T08:48:46.215Z,1.40
2023-01-25T08:51:19.364Z,1.40
2023-01-25T08:53:46.123Z,1.40
2023-01-25T08:56:17.820Z,1.50
2023-01-25T08:58:47.332Z,1.50
2023-01-25T09:01:16.229Z,1.50
2023-01-25T09:03:45.461Z,1.50
2023-01-25T09:06:12.950Z,1.50
2023-01-25T09:08:40.348Z,1.50
2023-01-25T09:11:10.368Z,1.50
2023-01-25T09:13:37.645Z,1.50
2023-01-25T09:16:10.095Z,1.60
2023-01-25T09:18:38.569Z,1.50
2023-01-25T09:21:13.809Z,1.50
2023-01-25T09:23:50.688Z,1.50
2023-01-25T09:26:18.960Z,1.50
2023-01-25T09:28:53.967Z,1.50
2023-01-25T09:31:24.933Z,1.50
2023-01-25T09:33:54.679Z,1.40
2023-01-25T09:36:21.518Z,1.40
2023-01-25T09:38:48.649Z,1.50
2023-01-25T09:41:49.377Z,1.50
2023-01-25T09:44:44.559Z,1.50
2023-01-25T09:47:37.665Z,1.60
2023-01-25T09:50:24.947Z,1.50
2023-01-25T09:52:54.152Z,1.50
2023-01-25T09:55:25.972Z,1.50
2023-01-25T09:57:56.725Z,1.50
2023-01-25T10:00:38.523Z,1.40
2023-01-25T10:03:11.520Z,1.40
2023-01-25T10:05:47.779Z,1.50
2023-01-25T10:08:27.285Z,1.50
2023-01-25T10:11:21.235Z,1.50
2023-01-25T10:13:52.060Z,1.50
2023-01-25T10:16:26.390Z,1.50
2023-01-25T10:19:05.537Z,1.50
2023-01-25T10:21:42.466Z,1.40
2023-01-25T10:24:21.133Z,1.50
2023-01-25T10:27:01.620Z,1.50
2023-01-25T10:29:36.598Z,1.50
2023-01-25T10:32:28.033Z,1.50
2023-01-25T10:34:58.455Z,1.50
2023-01-25T10:37:29.324Z,1.50
2023-01-25T10:40:08.668Z,1.50
2023-01-25T10:42:50.616Z,1.60
2023-01-25T10:45:18.211Z,1.60
2023-01-25T10:47:57.295Z,1.60
2023-01-25T10:50:42.020Z,1.60
2023-01-25T10:53:31.035Z,1.70
2023-01-25T10:56:12.860Z,1.70
2023-01-25T10:58:47.821Z,1.60
2023-01-25T11:01:25.665Z,1.60
2023-01-25T11:03:52.535Z,1.70
2023-01-25T11:06:31.280Z,1.70
2023-01-25T11:08:58.220Z,1.80
2023-01-25T11:11:40.487Z,1.70
2023-01-25T11:14:18.199Z,1.70
2023-01-25T11:16:48.992Z,1.80
2023-01-25T11:19:35.078Z,1.80
2023-01-25T11:22:05.361Z,1.80
2023-01-25T11:24:35.431Z,1.80
2023-01-25T11:27:19.109Z,1.80
2023-01-25T11:30:07.173Z,1.90
2023-01-25T11:32:36.843Z,1.90
2023-01-25T11:35:03.929Z,1.90
2023-01-25T11:37:54.975Z,1.90
2023-01-25T11:40:31.917Z,1.90
2023-01-25T11:43:34.531Z,1.90
2023-01-25T11:46:19.893Z,1.90
2023-01-25T11:49:08.442Z,1.80
2023-01-25T11:51:54.113Z,1.80
2023-01-25T11:54:40.474Z,1.80
2023-01-25T11:57:28.805Z,1.80
2023-01-25T11:59:58.225Z,1.80
2023-01-25T12:02:39.625Z,1.80
2023-01-25T12:05:29.830Z,1.80
2023-01-25T12:08:41.151Z,1.80
2023-01-25T12:11:22.588Z,1.80
2023-01-25T12:14:10.808Z,1.80
2023-01-25T12:16:37.564Z,1.70
2023-01-25T12:19:07.736Z,1.60
2023-01-25T12:21:56.515Z,1.50
2023-01-25T12:24:36.483Z,1.50
2023-01-25T12:27:22.113Z,1.50
2023-01-25T12:29:56.530Z,1.50
2023-01-25T12:32:47.595Z,1.50
2023-01-25T12:35:26.064Z,1.50
2023-01-25T12:38:00.339Z,1.50
2023-01-25T12:40:48.274Z,1.50
2023-01-25T12:43:23.601Z,1.50
2023-01-25T12:45:51.715Z,1.50
2023-01-25T12:48:32.540Z,1.50
2023-01-25T12:51:00.087Z,1.50
2023-01-25T12:53:47.328Z,1.50
2023-01-25T12:56:43.809Z,1.50
2023-01-25T12:59:26.878Z,1.60
2023-01-25T13:02:14.931Z,1.60
2023-01-25T13:05:07.713Z,1.60
2023-01-25T13:07:41.930Z,1.60
2023-01-25T13:10:25.929Z,1.50
2023-01-25T13:13:04.329Z,1.50
2023-01-25T13:15:39.556Z,1.50
2023-01-25T13:18:24.586Z,1.50
2023-01-25T13:21:03.976Z,1.50
2023-01-25T13:23:50.592Z,1.50
2023-01-25T13:26:24.189Z,1.50
2023-01-25T13:28:59.614Z,1.50
2023-01-25T13:31:51.106Z,1.50
2023-01-25T13:34:39.903Z,1.40
2023-01-25T13:37:33.486Z,1.40
2023-01-25T13:40:25.791Z,1.40
2023-01-25T13:43:20.061Z,1.40
2023-01-25T13:45:51.367Z,1.40
2023-01-25T13:48:28.700Z,1.50
2023-01-25T13:51:03.355Z,1.50
2023-01-25T13:53:33.409Z,1.50
2023-01-25T13:56:02.648Z,1.50
2023-01-25T13:58:44.928Z,1.50
2023-01-25T14:01:17.489Z,1.50
2023-01-25T14:03:56.406Z,1.60
2023-01-25T14:06:34.580Z,1.60
2023-01-25T14:09:07.544Z,1.60
2023-01-25T14:11:39.844Z,1.60
2023-01-25T14:14:28.369Z,1.60
2023-01-25T14:17:17.535Z,1.60
2023-01-25T14:19:54.800Z,1.60
2023-01-25T14:22:28.092Z,1.60
2023-01-25T14:25:14.171Z,1.60
2023-01-25T14:27:43.883Z,1.60
2023-01-25T14:30:37.159Z,1.60
2023-01-25T14:33:17.455Z,1.60
2023-01-25T14:36:01.711Z,1.60
2023-01-25T14:38:31.839Z,1.60
2023-01-25T14:41:14.448Z,1.60
2023-01-25T14:43:53.984Z,1.60
2023-01-25T14:46:32.069Z,1.60
2023-01-25T14:49:13.076Z,1.60
2023-01-25T14:51:59.263Z,1.50
2023-01-25T14:54:28.864Z,1.50
2023-01-25T14:57:01.969Z,1.50
2023-01-25T14:59:37.030Z,1.50
2023-01-25T15:02:21.808Z,1.40
2023-01-25T15:05:17.533Z,1.40
2023-01-25T15:07:55.960Z,1.30
2023-01-25T15:10:29.652Z,1.20
2023-01-25T15:13:14.238Z,1.20
2023-01-25T15:16:03.704Z,1.20
2023-01-25T15:18:50.837Z,1.20
2023-01-25T15:21:20.180Z,1.10
2023-01-25T15:23:48.744Z,1.10
2023-01-25T15:26:19.535Z,1.10
2023-01-25T15:28:47.033Z,1.10
2023-01-25T15:31:28.317Z,1.10
2023-01-25T15:33:56.566Z,1.10
2023-01-25T15:36:23.448Z,1.10
2023-01-25T15:38:50.374Z,1.10
2023-01-25T15:41:18.754Z,1.10
2023-01-25T15:43:49.512Z,1.00
2023-01-25T15:46:21.098Z,1.00
2023-01-25T15:48:51.230Z,1.00
2023-01-25T15:51:18.480Z,1.00
2023-01-25T15:53:45.308Z,0.90
2023-01-25T15:56:20.465Z,0.90
2023-01-25T15:58:53.279Z,1.00
2023-01-25T16:01:22.366Z,0.90
2023-01-25T16:03:49.300Z,1.00
2023-01-25T16:06:30.846Z,1.00
2023-01-25T16:08:59.093Z,0.90
2023-01-25T16:11:28.596Z,0.90
2023-01-25T16:13:55.445Z,0.90
2023-01-25T16:16:24.010Z,0.80
2023-01-25T16:18:50.876Z,0.80
2023-01-25T16:21:17.825Z,0.80
2023-01-25T16:23:44.610Z,0.80
2023-01-25T16:26:20.509Z,0.80
2023-01-25T16:28:47.381Z,0.90
2023-01-25T16:31:30.854Z,0.90
2023-01-25T16:33:58.553Z,0.90
2023-01-25T16:36:25.561Z,0.90
2023-01-25T16:38:52.711Z,0.90
2023-01-25T16:41:19.557Z,0.90
2023-01-25T16:43:47.956Z,0.80
2023-01-25T16:46:24.049Z,0.80
2023-01-25T16:48:52.405Z,0.80
2023-01-25T16:51:24.719Z,0.80
2023-01-25T16:53:56.758Z,0.80
2023-01-25T16:56:26.093Z,0.70
2023-01-25T16:58:54.967Z,0.80
2023-01-25T17:01:23.420Z,0.70
2023-01-25T17:03:51.229Z,0.70
2023-01-25T17:06:24.836Z,0.70
2023-01-25T17:08:52.772Z,0.70
2023-01-25T17:11:19.615Z,0.70
2023-01-25T17:13:53.825Z,0.70
2023-01-25T17:16:21.895Z,0.70
2023-01-25T17:18:53.440Z,0.70
2023-01-25T17:21:21.451Z,0.80
2023-01-25T17:23:48.508Z,0.70
2023-01-25T17:26:20.613Z,0.70
2023-01-25T17:28:48.213Z,0.70
2023-01-25T17:31:16.738Z,0.80
2023-01-25T17:33:44.119Z,0.80
2023-01-25T17:36:11.411Z,0.80
2023-01-25T17:38:38.184Z,0.80
2023-01-25T17:41:10.005Z,0.80
2023-01-25T17:43:37.360Z,0.80
2023-01-25T17:46:15.367Z,0.80
2023-01-25T17:48:42.310Z,0.80
2023-01-25T17:51:09.491Z,0.80
2023-01-25T17:53:36.391Z,0.80
2023-01-25T17:56:07.655Z,0.80
2023-01-25T17:58:38.971Z,0.80
2023-01-25T18:01:14.410Z,0.80
2023-01-25T18:03:46.083Z,0.80
2023-01-25T18:06:18.089Z,0.80
2023-01-25T18:08:52.466Z,0.80
2023-01-25T18:11:26.059Z,0.90
2023-01-25T18:13:55.904Z,0.90
2023-01-25T18:16:25.181Z,0.90
2023-01-25T18:18:53.799Z,0.90
2023-01-25T18:21:26.375Z,0.90
2023-01-25T18:23:59.188Z,0.90
2023-01-25T18:26:31.854Z,0.90
2023-01-25T18:29:02.845Z,0.90
2023-01-25T18:31:29.742Z,0.90
2023-01-25T18:33:58.111Z,0.90
2023-01-25T18:36:25.417Z,0.90
2023-01-25T18:38:52.528Z,0.80
2023-01-25T18:41:19.221Z,0.80
2023-01-25T18:43:49.243Z,0.80
2023-01-25T18:46:16.374Z,0.80
2023-01-25T18:48:45.491Z,0.80
2023-01-25T18:51:17.802Z,0.80
2023-01-25T18:53:47.498Z,0.70
2023-01-25T18:56:22.052Z,0.70
2023-01-25T18:58:51.022Z,0.70
2023-01-25T19:01:20.483Z,0.60
2023-01-25T19:03:49.009Z,0.60
2023-01-25T19:06:16.961Z,0.60
2023-01-25T19:08:49.605Z,0.60
2023-01-25T19:11:22.335Z,0.60
2023-01-25T19:13:49.771Z,0.50
2023-01-25T19:16:24.453Z,0.50
2023-01-25T19:18:53.368Z,0.50
2023-01-25T19:21:22.780Z,0.50
2023-01-25T19:23:50.963Z,0.50
2023-01-25T19:26:23.733Z,0.50
2023-01-25T19:28:50.739Z,0.50
2023-01-25T19:31:20.811Z,0.50
2023-01-25T19:33:51.534Z,0.50
2023-01-25T19:36:19.268Z,0.50
2023-01-25T19:38:49.847Z,0.50
2023-01-25T19:41:27.477Z,0.50
2023-01-25T19:43:57.799Z,0.50
2023-01-25T19:46:28.056Z,0.50
2023-01-25T19:48:55.126Z,0.50
2023-01-25T19:51:23.072Z,0.50
2023-01-25T19:53:55.290Z,0.50
2023-01-25T19:56:22.525Z,0.50
2023-01-25T19:58:50.872Z,0.50
2023-01-25T20:01:20.690Z,0.50
2023-01-25T20:03:48.013Z,0.50
2023-01-25T20:06:16.854Z,0.50
2023-01-25T20:08:45.768Z,0.50
2023-01-25T20:11:21.676Z,0.50
2023-01-25T20:13:50.292Z,0.50
2023-01-25T20:16:21.307Z,0.50
2023-01-25T20:18:49.548Z,0.50
2023-01-25T20:21:22.802Z,0.60
2023-01-25T20:23:58.399Z,0.50
2023-01-25T20:26:32.492Z,0.60
2023-01-25T20:29:02.717Z,0.60
2023-01-25T20:31:40.579Z,0.60
2023-01-25T20:34:19.210Z,0.60
2023-01-25T20:36:46.774Z,0.60
2023-01-25T20:39:16.242Z,0.60
2023-01-25T20:41:45.380Z,0.60
2023-01-25T20:44:13.791Z,0.50
2023-01-25T20:46:42.815Z,0.50
2023-01-25T20:49:14.107Z,0.50
2023-01-25T20:51:42.727Z,0.50
2023-01-25T20:54:09.887Z,0.50
2023-01-25T20:56:36.815Z,0.50
2023-01-25T20:59:04.088Z,0.50
2023-01-25T21:01:36.939Z,0.50
2023-01-25T21:04:06.040Z,0.50
2023-01-25T21:06:34.989Z,0.60
2023-01-25T21:09:02.072Z,0.50
2023-01-25T21:11:28.995Z,0.60
2023-01-25T21:13:55.872Z,0.60
2023-01-25T21:16:23.333Z,0.60
2023-01-25T21:18:55.694Z,0.60
2023-01-25T21:21:31.713Z,0.60
2023-01-25T21:24:00.214Z,0.60
2023-01-25T21:26:29.576Z,0.60
2023-01-25T21:28:56.376Z,0.60
2023-01-25T21:31:35.021Z,0.60
2023-01-25T21:34:02.832Z,0.60
2023-01-25T21:36:29.719Z,0.60
2023-01-25T21:38:57.086Z,0.60
2023-01-25T21:41:26.295Z,0.60
2023-01-25T21:44:13.233Z,0.60
2023-01-25T21:46:40.373Z,0.60
2023-01-25T21:49:28.226Z,0.50
2023-01-25T21:51:57.057Z,0.50
2023-01-25T21:54:32.607Z,0.60
2023-01-25T21:57:01.806Z,0.60
2023-01-25T21:59:28.925Z,0.60
2023-01-25T22:01:56.195Z,0.60
2023-01-25T22:04:24.533Z,0.50
2023-01-25T22:06:54.829Z,0.50
2023-01-25T22:09:22.845Z,0.50
2023-01-25T22:11:50.789Z,0.50
2023-01-25T22:14:24.506Z,0.60
2023-01-25T22:16:52.340Z,0.50
2023-01-25T22:19:19.170Z,0.60
2023-01-25T22:21:46.065Z,0.50
2023-01-25T22:24:13.202Z,0.50
2023-01-25T22:27:24.286Z,0.50
2023-01-25T22:29:51.012Z,0.50
2023-01-25T22:32:17.812Z,0.50
2023-01-25T22:34:44.648Z,0.50
2023-01-25T22:37:11.894Z,0.50
2023-01-25T22:39:38.784Z,0.50
2023-01-25T22:42:05.993Z,0.50
2023-01-25T22:44:32.716Z,0.60
2023-01-25T22:46:59.433Z,0.60
2023-01-25T22:49:26.217Z,0.50
2023-01-25T22:51:55.295Z,0.50
2023-01-25T22:54:24.492Z,0.50
2023-01-25T22:56:51.320Z,0.50
2023-01-25T22:59:19.377Z,0.50
2023-01-25T23:01:46.359Z,0.50
2023-01-25T23:04:13.372Z,0.50
2023-01-25T23:06:40.247Z,0.50
2023-01-25T23:09:07.361Z,0.50
2023-01-25T23:11:37.928Z,0.40
2023-01-25T23:14:31.163Z,0.40
2023-01-25T23:17:17.970Z,0.40
2023-01-25T23:19:47.543Z,0.40
2023-01-25T23:22:14.193Z,0.30
2023-01-25T23:24:40.912Z,0.40
2023-01-25T23:27:07.637Z,0.30
2023-01-25T23:29:34.278Z,0.30
2023-01-25T23:32:01.002Z,0.30
2023-01-25T23:34:37.013Z,0.30
2023-01-25T23:37:04.255Z,0.30
2023-01-25T23:39:36.072Z,0.30
2023-01-25T23:42:03.301Z,0.30
2023-01-25T23:44:30.274Z,0.40
2023-01-25T23:46:57.004Z,0.30
2023-01-25T23:49:23.685Z,0.30
2023-01-25T23:51:50.364Z,0.30
2023-01-25T23:54:17.104Z,0.30
2023-01-25T23:56:43.834Z,0.30
2023-01-25T23:59:10.603Z,0.30
